Airfield :
LOGIN :

Register | Disclaimer

   EN    FR    IT 

 










Legend :    VFR   Marginal VFR   IFR   Intensive IFR   Very Intensive IFR
Visi :
Ceiling :
>= 8 km
>= 3000ft
5 to 8 km
1000 to 3000 ft
1500m to 5 km
500 to 1000 ft
800 to 1500m
200 to 500 ft
< 800m
< 200 ft
Symbols :   Thunderstorms  Fog  Heavy snow  Heavy precipitations  Wind > 20 kt
SIGMETs :     Misc.  Thunderstorms  Icing  Turbulence  Mountain Waves  Volcanic Ashes






- Airport Elevation : 187 ft


ETNW - Wunstorf AB

CURRENT METAR :
  • 290820Z 28010KT 9999 FEW009 BKN011 11/07 Q1012 GRN BLU TEMPO GRN

EXPIRED METARs :
  • 290720Z 28009KT 9999 FEW009 BKN010 11/08 Q1012 GRN BLU TEMPO GRN
  • 290620Z 28011KT 9999 BKN009 BKN030 10/07 Q1012 GRN BLU TEMPO GRN
  • 290550Z 27002KT 9999 FEW009 BKN010 BKN040 10/08 Q1012 GRN BLU TEMPO GRN

TAF TAF ETNW
Valid from the 29 at 05:00 until the 30 at 05:00 UTC


290409Z 2905/3005 27010KT 9999 NSW SCT010 BKN050
TEMPO 2905/2908 29012KT 8000 -RA BKN010
TEMPO 2910/2918 30012G22KT 4000 SHRA BKN010 BKN030CB BY ETGL



MET'MAP, your aeronautical weather chart ! - Copyright ORBIFLY December 2007 - Disclaimer

ORBIFLY MET'MAP TEAM :

Programming & Development : Alexandra Zaïnal
Original concept : Baudouin d'Aumeries
Technical & hardware support : Manuel Goepfert
Assistance : Marc-Olivier Méhu

Contact : metmap@orbifly.com




SOURCES & CREDITS :

   NOAA